Airfield :
LOGIN :

Register | Disclaimer

   EN    FR    IT 

 










Legend :    VFR   Marginal VFR   IFR   Intensive IFR   Very Intensive IFR
Visi :
Ceiling :
>= 8 km
>= 3000ft
5 to 8 km
1000 to 3000 ft
1500m to 5 km
500 to 1000 ft
800 to 1500m
200 to 500 ft
< 800m
< 200 ft
Symbols :   Thunderstorms  Fog  Heavy snow  Heavy precipitations  Wind > 20 kt
SIGMETs :     Misc.  Thunderstorms  Icing  Turbulence  Mountain Waves  Volcanic Ashes






- Airport Elevation : 17 ft
- IATA code : CPH


EKCH - København - Kastrup (Copenhagen)

CURRENT METAR :
  • 221950Z 13011KT 5000 BR FEW005 BKN007 09/09 Q1013 TEMPO 3000 BKN012

EXPIRED METARs :
  • 221920Z 13009KT 3500 BR SCT003 BKN006 09/09 Q1013 TEMPO 8000 NSW BKN012
  • 221851Z 14007KT 9000 OVC013 09/08 Q1013 TEMPO 3000 BR BKN015
  • 221820Z 14008KT 4000 BR FEW010 OVC015 09/09 Q1013 TEMPO 6000 NSW BKN008
  • 221750Z 14009KT 3500 BR FEW004 BKN017 09/09 Q1012 TEMPO 6000 NSW BKN008
  • 221720Z 12007KT 4000 BR FEW006 SCT015 BKN017 09/09 Q1012 TEMPO 6000 NSW BKN008

TAF TAF EKCH
Valid from the 22 at 18:00 until the 23 at 18:00 UTC


221705Z 2218/2318 14010KT 8000 SCT008 BKN015
TEMPO 2218/2224 3000 BR BKN008
TEMPO 2300/2318 BKN010



MET'MAP, your aeronautical weather chart ! - Copyright ORBIFLY December 2007 - Disclaimer

ORBIFLY MET'MAP TEAM :

Programming & Development : Alexandra Zaïnal
Concept & Development : Baudouin d'Aumeries
Co-Development & Prog : Marc-Olivier Méhu
Technical & hardware support : Manuel Goepfert

Contact : metmap@orbifly.com




SOURCES & CREDITS :

   NOAA